Time;durP1;ratioP1;P1;durP2;ratioP2;P2;SDS_P1;SDS_P2;PMS_P1;PMS_P2;Temp;Humidity;BMP_temperature;BMP_pressure;BME280_temperature;BME280_humidity;BME280_pressure;Samples;Min_cycle;Max_cycle;Signal;HPM_P1;HPM_P2
2024/02/24 00:00:00;;;;;;;5.20;3.40;;;;;;;5.02;70.37;96472.19;5032071;28;20045;-76
2024/02/24 00:02:26;;;;;;;4.82;2.92;;;;;;;4.86;71.10;96454.41;5045078;28;20032;-76
2024/02/24 00:04:52;;;;;;;4.07;2.78;;;;;;;5.08;70.69;96481.06;5011984;28;20038;-77
2024/02/24 00:07:44;;;;;;;4.65;2.97;;;;;;;5.16;70.67;96499.31;5047840;28;20022;-76
2024/02/24 00:10:10;;;;;;;2.20;2.00;;;;;;;4.97;70.20;96480.13;5026509;28;20041;-77
2024/02/24 00:12:35;;;;;;;2.60;1.90;;;;;;;5.01;70.64;96486.59;5060069;28;20030;-76
2024/02/24 00:15:01;;;;;;;5.95;3.28;;;;;;;4.97;71.09;96480.13;5003896;28;20041;-76
2024/02/24 00:17:26;;;;;;;3.38;2.50;;;;;;;4.92;71.07;96476.63;5017786;28;20026;-76
2024/02/24 00:19:52;;;;;;;4.60;2.92;;;;;;;5.06;70.40;96494.66;5036281;28;20100;-76
2024/02/24 00:22:19;;;;;;;3.90;2.53;;;;;;;4.97;70.65;96480.13;5045849;28;20021;-76
2024/02/24 00:24:54;;;;;;;4.95;2.83;;;;;;;5.07;70.87;96493.59;5032798;28;20033;-75
2024/02/24 00:27:33;;;;;;;5.25;2.92;;;;;;;4.97;70.89;96490.03;5052309;28;20041;-75
2024/02/24 00:30:19;;;;;;;4.28;2.50;;;;;;;4.94;70.65;96480.66;5032396;28;20029;-76
2024/02/24 00:32:44;;;;;;;8.32;5.07;;;;;;;4.96;70.43;96491.88;5030162;28;20091;-76
2024/02/24 00:35:10;;;;;;;4.40;3.28;;;;;;;4.99;70.52;96488.72;5029769;28;20033;-76
2024/02/24 00:37:35;;;;;;;4.18;2.20;;;;;;;4.92;70.57;96472.09;5018839;28;20033;-76
2024/02/24 00:40:10;;;;;;;2.20;2.00;;;;;;;4.82;70.60;96469.31;5026571;28;20030;-75
2024/02/24 00:43:16;;;;;;;3.55;2.47;;;;;;;4.87;70.55;96493.38;5054580;28;20501;-77
2024/02/24 00:46:15;;;;;;;3.00;2.50;;;;;;;4.84;70.96;96491.22;4999290;28;20065;-76
2024/02/24 00:48:41;;;;;;;3.08;2.30;;;;;;;4.82;71.00;96498.66;5026232;28;20048;-76
2024/02/24 00:51:21;;;;;;;2.38;2.10;;;;;;;4.74;70.97;96499.91;5041400;28;20017;-76
2024/02/24 00:53:50;;;;;;;2.20;1.50;;;;;;;4.73;71.24;96510.81;5059157;28;20034;-77
2024/02/24 00:56:23;;;;;;;3.03;1.67;;;;;;;4.68;70.37;96497.41;5021487;28;20539;-75
2024/02/24 00:58:49;;;;;;;1.92;1.73;;;;;;;4.69;71.66;96501.72;5050201;28;20037;-75
2024/02/24 01:01:22;;;;;;;1.83;1.60;;;;;;;4.70;71.00;96505.97;5037152;28;20033;-76
2024/02/24 01:03:55;;;;;;;2.47;1.70;;;;;;;4.68;71.12;96505.41;5040603;28;20045;-75
2024/02/24 01:06:28;;;;;;;2.15;1.77;;;;;;;4.68;71.70;96503.56;5038692;28;20471;-76
2024/02/24 01:08:59;;;;;;;1.70;1.60;;;;;;;4.64;72.19;96491.78;5038609;28;20044;-76
2024/02/24 01:11:35;;;;;;;2.58;1.85;;;;;;;4.68;71.91;96502.75;5051658;28;20040;-76
2024/02/24 01:14:02;;;;;;;3.13;1.98;;;;;;;4.70;71.32;96500.63;5048902;28;20113;-75
2024/02/24 01:16:29;;;;;;;4.18;2.30;;;;;;;4.67;71.94;96495.78;5047146;28;20025;-75
2024/02/24 01:18:54;;;;;;;4.13;2.25;;;;;;;4.63;72.01;96484.03;5026470;28;20037;-77
2024/02/24 01:21:20;;;;;;;2.10;1.90;;;;;;;4.49;71.72;96466.78;5043852;28;20033;-76
2024/02/24 01:23:45;;;;;;;3.45;2.00;;;;;;;4.60;71.64;96489.84;5009961;28;20029;-77
2024/02/24 01:26:10;;;;;;;2.45;1.88;;;;;;;4.55;72.01;96490.59;5027352;28;20421;-76
2024/02/24 01:28:36;;;;;;;3.65;2.08;;;;;;;4.55;71.95;96497.81;5027252;28;20041;-78
2024/02/24 01:31:02;;;;;;;2.63;1.80;;;;;;;4.43;71.46;96465.13;5036233;28;20021;-77
2024/02/24 01:33:28;;;;;;;3.35;1.75;;;;;;;4.65;71.52;96500.56;5045933;28;20038;-76
2024/02/24 01:35:54;;;;;;;2.22;1.50;;;;;;;4.56;72.16;96502.06;5019508;28;20469;-77
2024/02/24 01:38:20;;;;;;;3.42;1.80;;;;;;;4.55;71.98;96497.81;5013860;28;20049;-77
2024/02/24 01:40:45;;;;;;;2.03;1.73;;;;;;;4.54;71.56;96496.19;5036062;28;20507;-78
2024/02/24 01:43:24;;;;;;;2.88;2.00;;;;;;;4.50;72.17;96495.06;5029652;28;20038;-77
2024/02/24 01:45:50;;;;;;;2.75;1.83;;;;;;;4.42;71.88;96476.84;5035274;28;20448;-78
2024/02/24 01:48:16;;;;;;;1.90;1.70;;;;;;;4.62;71.79;96509.09;5034429;28;20072;-78
2024/02/24 01:50:41;;;;;;;1.90;1.70;;;;;;;4.52;71.85;96487.63;5019317;28;20042;-77
2024/02/24 01:53:07;;;;;;;2.60;1.55;;;;;;;4.50;72.16;96489.75;5037170;28;20401;-77
2024/02/24 01:55:33;;;;;;;2.70;1.60;;;;;;;4.53;71.70;96492.69;5025887;28;20128;-77
2024/02/24 01:57:59;;;;;;;2.10;1.80;;;;;;;4.31;71.76;96465.25;5003397;28;20033;-77
2024/02/24 02:00:24;;;;;;;1.98;1.45;;;;;;;4.44;71.93;96475.53;5018013;28;20041;-77
2024/02/24 02:02:50;;;;;;;2.28;1.63;;;;;;;4.43;71.57;96484.59;5034284;28;20033;-75
2024/02/24 02:05:16;;;;;;;1.88;1.60;;;;;;;4.52;71.86;96501.78;5026287;28;20409;-76
2024/02/24 02:07:41;;;;;;;1.83;1.40;;;;;;;4.53;72.00;96507.88;5034383;28;20017;-77
2024/02/24 02:10:07;;;;;;;3.78;1.58;;;;;;;4.36;72.25;96478.66;5073614;28;20029;-77
2024/02/24 02:12:34;;;;;;;2.25;1.55;;;;;;;4.50;71.88;96495.88;5037521;28;20018;-77
2024/02/24 02:14:59;;;;;;;1.70;1.60;;;;;;;4.43;72.09;96479.28;5051110;28;20128;-76
2024/02/24 02:17:25;;;;;;;2.35;1.50;;;;;;;4.53;71.42;96505.22;5010684;28;20052;-76
2024/02/24 02:19:50;;;;;;;1.75;1.45;;;;;;;4.48;71.98;96513.19;5033687;28;20040;-77
2024/02/24 02:22:17;;;;;;;3.30;1.85;;;;;;;4.47;71.95;96514.22;5003710;28;20112;-77
2024/02/24 02:24:44;;;;;;;2.53;1.60;;;;;;;4.48;71.95;96515.84;5042466;28;20080;-76
2024/02/24 02:27:09;;;;;;;1.70;1.50;;;;;;;4.41;71.82;96512.56;5044965;28;20545;-77
2024/02/24 02:29:35;;;;;;;2.65;1.70;;;;;;;4.37;71.64;96517.53;5026546;28;20033;-77
2024/02/24 02:32:00;;;;;;;1.85;1.70;;;;;;;4.32;72.03;96500.72;5027695;28;20033;-77
2024/02/24 02:34:26;;;;;;;1.80;1.50;;;;;;;4.20;72.01;96490.94;5036037;28;20068;-77
2024/02/24 02:36:52;;;;;;;2.20;1.70;;;;;;;4.32;72.01;96514.81;5036119;28;20032;-77
2024/02/24 02:39:17;;;;;;;4.32;1.70;;;;;;;4.25;72.22;96498.19;5009678;28;20394;-77
2024/02/24 02:41:44;;;;;;;1.85;1.40;;;;;;;4.21;71.74;96491.75;5006757;28;20021;-77
2024/02/24 02:44:09;;;;;;;1.98;1.60;;;;;;;4.22;72.13;96494.16;5014452;28;20079;-77
2024/02/24 02:46:35;;;;;;;2.88;1.70;;;;;;;4.19;72.37;96494.69;5030934;28;20366;-76
2024/02/24 02:49:00;;;;;;;2.67;1.92;;;;;;;4.36;71.54;96515.13;5021353;28;20033;-77
2024/02/24 02:51:26;;;;;;;2.50;1.88;;;;;;;4.22;72.38;96513.88;5038226;28;20029;-77
2024/02/24 02:53:51;;;;;;;7.43;2.45;;;;;;;4.31;72.04;96539.06;5020941;28;20038;-77
2024/02/24 02:56:20;;;;;;;1.80;1.70;;;;;;;4.31;72.08;96531.88;5037430;28;20076;-77
2024/02/24 02:58:46;;;;;;;2.75;1.70;;;;;;;4.31;72.57;96552.38;5045409;28;20038;-76
2024/02/24 03:01:12;;;;;;;3.72;1.65;;;;;;;4.19;72.65;96539.97;5017264;28;20079;-76
2024/02/24 03:03:37;;;;;;;2.67;1.92;;;;;;;4.14;72.61;96529.22;5060611;28;20089;-75
2024/02/24 03:06:03;;;;;;;2.53;1.33;;;;;;;4.19;72.71;96537.31;5027165;28;20029;-76
2024/02/24 03:08:32;;;;;;;1.60;1.50;;;;;;;4.32;72.37;96557.44;5034793;28;20034;-75
2024/02/24 03:10:58;;;;;;;2.83;1.92;;;;;;;4.34;72.24;96554.56;5063578;28;20032;-76
2024/02/24 03:13:24;;;;;;;1.70;1.60;;;;;;;4.09;72.12;96521.16;5039777;28;20037;-76
2024/02/24 03:15:49;;;;;;;1.73;1.63;;;;;;;4.22;73.03;96547.44;5034016;28;20026;-75
2024/02/24 03:18:15;;;;;;;2.67;1.70;;;;;;;4.18;72.72;96541.00;5025303;28;20044;-75
2024/02/24 03:20:40;;;;;;;2.00;1.63;;;;;;;4.22;73.35;96551.19;5041957;28;20488;-75
2024/02/24 03:23:06;;;;;;;2.20;1.60;;;;;;;3.76;72.86;96489.22;5008468;28;20065;-77
2024/02/24 03:25:32;;;;;;;3.13;1.73;;;;;;;4.28;72.70;96560.84;5025732;28;20025;-77
2024/02/24 03:27:58;;;;;;;1.58;1.48;;;;;;;4.26;73.05;96557.63;5013661;28;20034;-77
2024/02/24 03:30:23;;;;;;;2.95;2.00;;;;;;;4.20;72.82;96554.88;5033842;28;20585;-77
2024/02/24 03:32:48;;;;;;;2.05;1.73;;;;;;;4.22;72.91;96557.31;5025546;28;20037;-76
2024/02/24 03:35:14;;;;;;;1.70;1.60;;;;;;;4.18;72.95;96546.31;5033748;28;20428;-76
2024/02/24 03:37:39;;;;;;;1.95;1.70;;;;;;;4.17;72.89;96550.06;5033605;28;20128;-77
2024/02/24 03:40:06;;;;;;;2.20;1.60;;;;;;;4.24;72.33;96554.41;5022509;28;20034;-77
2024/02/24 03:42:31;;;;;;;2.92;1.73;;;;;;;4.12;72.59;96534.00;5009011;28;20079;-78
2024/02/24 03:44:57;;;;;;;1.50;1.40;;;;;;;4.20;72.79;96549.56;5025235;28;20049;-77
2024/02/24 03:47:22;;;;;;;2.17;1.58;;;;;;;3.99;73.05;96518.34;5017183;28;20130;-77
2024/02/24 03:49:47;;;;;;;2.40;1.70;;;;;;;4.13;72.57;96535.59;5032217;28;20128;-77
2024/02/24 03:52:13;;;;;;;3.08;1.90;;;;;;;4.20;72.75;96548.78;5053564;28;20124;-76
2024/02/24 03:54:38;;;;;;;1.77;1.60;;;;;;;4.10;72.44;96545.94;5046534;28;20112;-77
2024/02/24 03:57:04;;;;;;;1.83;1.63;;;;;;;4.03;72.78;96551.44;5032969;28;20478;-76
2024/02/24 03:59:29;;;;;;;2.83;1.85;;;;;;;3.92;72.46;96541.66;5032932;28;20022;-75
2024/02/24 04:01:54;;;;;;;1.65;1.55;;;;;;;4.15;72.49;96578.78;5048621;28;20038;-75
2024/02/24 04:04:20;;;;;;;2.08;1.80;;;;;;;4.01;72.58;96569.50;5031999;28;20052;-76
2024/02/24 04:06:45;;;;;;;2.53;1.77;;;;;;;4.09;72.89;96579.75;5033232;28;20108;-76
2024/02/24 04:09:11;;;;;;;2.20;1.80;;;;;;;4.01;72.97;96568.72;5025645;28;20053;-75
2024/02/24 04:11:36;;;;;;;2.55;1.83;;;;;;;3.97;73.65;96560.38;5040443;28;20040;-77
2024/02/24 04:14:01;;;;;;;1.80;1.70;;;;;;;4.02;73.01;96560.47;5038502;28;20029;-76
2024/02/24 04:16:27;;;;;;;2.20;1.75;;;;;;;4.07;72.79;96562.41;5012078;28;20489;-76
2024/02/24 04:18:52;;;;;;;2.05;1.80;;;;;;;3.87;72.93;96533.63;5046425;28;20037;-76
2024/02/24 04:21:20;;;;;;;2.00;1.75;;;;;;;4.01;73.16;96560.72;5023781;28;20043;-76
2024/02/24 04:23:45;;;;;;;3.88;1.92;;;;;;;4.01;73.21;96566.84;5022045;28;20664;-77
2024/02/24 04:26:11;;;;;;;3.28;1.80;;;;;;;3.79;73.21;96539.34;5031846;28;20052;-76
2024/02/24 04:28:36;;;;;;;2.00;1.80;;;;;;;3.90;73.18;96559.75;5033198;28;20024;-76
2024/02/24 04:31:01;;;;;;;2.88;1.80;;;;;;;3.99;72.91;96584.91;5015419;28;20041;-76
2024/02/24 04:33:27;;;;;;;2.17;1.50;;;;;;;4.03;72.75;96590.59;5015069;28;20029;-75
2024/02/24 04:35:52;;;;;;;3.05;1.70;;;;;;;3.96;72.88;96580.09;5027197;28;20485;-75
2024/02/24 04:38:17;;;;;;;2.17;1.77;;;;;;;3.97;72.38;96576.38;5015250;28;20029;-76
2024/02/24 04:40:43;;;;;;;1.83;1.67;;;;;;;4.09;72.80;96598.41;5015497;28;20041;-75
2024/02/24 04:43:08;;;;;;;1.83;1.65;;;;;;;4.06;72.87;96596.22;5052520;28;20053;-75
2024/02/24 04:45:35;;;;;;;3.58;1.85;;;;;;;4.00;73.22;96583.88;5052867;28;20033;-75
2024/02/24 04:48:00;;;;;;;1.98;1.77;;;;;;;4.06;72.61;96585.56;5030571;28;20862;-75
2024/02/24 04:50:26;;;;;;;2.58;1.83;;;;;;;4.02;73.48;96584.44;5031276;28;20037;-75
2024/02/24 04:52:52;;;;;;;2.13;1.80;;;;;;;3.97;73.69;96581.69;5031113;28;20029;-75
2024/02/24 04:55:17;;;;;;;2.75;2.15;;;;;;;3.97;73.63;96580.88;5031042;28;20053;-76
2024/02/24 04:57:42;;;;;;;2.05;1.85;;;;;;;3.91;73.19;96582.66;5030676;28;20025;-75
2024/02/24 05:00:08;;;;;;;2.03;1.83;;;;;;;3.93;73.82;96590.41;5022817;28;20033;-75
2024/02/24 05:02:34;;;;;;;3.25;1.98;;;;;;;3.83;73.44;96569.75;5031028;28;20060;-75
2024/02/24 05:04:59;;;;;;;2.25;1.80;;;;;;;3.79;73.64;96573.94;5030832;28;20120;-76
2024/02/24 05:07:25;;;;;;;2.20;2.00;;;;;;;3.87;73.82;96597.53;5006217;28;20381;-74
2024/02/24 05:09:50;;;;;;;2.22;1.98;;;;;;;3.91;73.50;96603.97;5047433;28;20037;-77
2024/02/24 05:12:15;;;;;;;3.05;2.22;;;;;;;3.85;73.21;96598.81;5009497;28;20026;-77
2024/02/24 05:14:41;;;;;;;2.85;2.42;;;;;;;3.73;73.68;96582.09;5031028;28;20037;-77
2024/02/24 05:17:12;;;;;;;8.40;7.13;;;;;;;3.86;73.57;96606.56;5030874;28;20029;-77
2024/02/24 05:19:37;;;;;;;4.57;4.05;;;;;;;3.65;73.77;96580.63;5046613;28;20120;-77
2024/02/24 05:22:02;;;;;;;2.75;2.53;;;;;;;3.79;73.44;96608.56;5022429;28;20056;-77
2024/02/24 05:24:28;;;;;;;2.90;2.33;;;;;;;3.83;73.92;96620.34;5022452;28;20088;-77
2024/02/24 05:26:53;;;;;;;2.38;1.98;;;;;;;3.69;74.10;96597.72;5014374;28;20375;-77
2024/02/24 05:29:19;;;;;;;3.25;2.33;;;;;;;3.82;73.91;96624.06;5022345;28;20068;-76
2024/02/24 05:31:44;;;;;;;2.60;2.13;;;;;;;3.82;74.15;96629.38;5014138;28;20033;-75
2024/02/24 05:34:09;;;;;;;2.50;2.30;;;;;;;3.71;74.07;96635.56;5030858;28;20528;-76
2024/02/24 05:36:36;;;;;;;4.95;2.30;;;;;;;3.79;73.92;96635.19;5014093;28;20083;-77
2024/02/24 05:39:04;;;;;;;2.40;2.20;;;;;;;3.71;74.39;96635.56;5030268;28;20052;-76
2024/02/24 05:41:29;;;;;;;3.00;2.42;;;;;;;3.68;74.63;96641.38;5025656;28;20033;-76
2024/02/24 05:43:54;;;;;;;3.83;2.40;;;;;;;3.73;74.39;96641.47;5030849;28;20052;-76
2024/02/24 05:46:20;;;;;;;2.47;2.20;;;;;;;3.69;74.42;96640.31;5015747;28;20021;-76
2024/02/24 05:48:46;;;;;;;3.22;2.20;;;;;;;3.61;74.34;96624.75;5018438;28;20072;-76
2024/02/24 05:51:12;;;;;;;2.53;2.17;;;;;;;3.78;74.42;96654.84;5031041;28;20031;-76
2024/02/24 05:53:37;;;;;;;2.40;2.20;;;;;;;3.67;74.71;96650.41;5031034;28;20421;-76
2024/02/24 05:56:05;;;;;;;2.20;2.00;;;;;;;3.73;75.00;96652.13;5031421;28;20501;-77
2024/02/24 05:58:31;;;;;;;3.13;2.28;;;;;;;3.74;74.83;96653.72;5039791;28;20498;-77
2024/02/24 06:00:57;;;;;;;2.45;2.20;;;;;;;3.55;75.21;96631.00;5030916;28;20044;-78
2024/02/24 06:03:22;;;;;;;2.20;2.00;;;;;;;3.74;74.94;96652.91;5027007;28;20037;-77
2024/02/24 06:05:48;;;;;;;2.63;2.25;;;;;;;3.77;74.73;96649.78;5053219;28;20048;-77
2024/02/24 06:08:14;;;;;;;2.30;2.10;;;;;;;3.73;74.54;96645.97;5042180;28;20025;-77
2024/02/24 06:10:39;;;;;;;3.60;2.25;;;;;;;3.63;74.49;96633.28;5053282;28;20025;-78
2024/02/24 06:13:05;;;;;;;2.78;2.40;;;;;;;3.74;75.16;96643.06;5035988;28;20049;-78
2024/02/24 06:15:31;;;;;;;3.78;2.65;;;;;;;3.76;74.72;96648.97;5006377;28;20029;-78
2024/02/24 06:17:56;;;;;;;2.90;2.70;;;;;;;3.78;74.81;96657.50;5034068;28;20034;-78
2024/02/24 06:20:22;;;;;;;3.45;2.60;;;;;;;3.70;74.80;96646.44;5034863;28;20025;-77
2024/02/24 06:22:48;;;;;;;3.15;2.72;;;;;;;3.79;74.59;96680.44;5034376;28;20084;-78
2024/02/24 06:25:13;;;;;;;3.65;3.15;;;;;;;3.89;74.71;96685.16;5034512;28;20112;-76
2024/02/24 06:27:39;;;;;;;2.80;2.58;;;;;;;3.94;74.71;96686.06;5033737;28;20053;-76
2024/02/24 06:30:05;;;;;;;3.17;2.88;;;;;;;3.78;74.50;96684.13;5019934;28;20118;-76
2024/02/24 06:32:31;;;;;;;3.22;2.53;;;;;;;3.80;74.67;96660.78;5033566;28;20033;-77
2024/02/24 06:34:56;;;;;;;2.83;2.45;;;;;;;3.94;74.72;96678.06;5008533;28;20032;-76
2024/02/24 06:37:22;;;;;;;2.78;2.47;;;;;;;3.96;73.84;96669.81;5041950;28;20041;-76
2024/02/24 06:39:47;;;;;;;3.25;2.50;;;;;;;3.82;74.48;96656.00;5033174;28;20032;-76
2024/02/24 06:42:13;;;;;;;4.40;3.20;;;;;;;3.96;74.68;96681.28;5026425;28;20127;-82
2024/02/24 06:44:39;;;;;;;4.00;2.53;;;;;;;3.90;74.36;96663.59;5039853;28;20405;-78
2024/02/24 06:47:05;;;;;;;4.43;3.20;;;;;;;4.06;74.93;96675.34;5043588;28;20123;-77
2024/02/24 06:49:30;;;;;;;3.58;3.22;;;;;;;4.15;74.37;96693.31;5011879;28;20052;-76
2024/02/24 06:51:55;;;;;;;4.50;3.20;;;;;;;3.98;74.45;96673.06;5017515;28;20042;-77
2024/02/24 06:54:21;;;;;;;4.97;3.30;;;;;;;4.20;74.57;96709.41;5029507;28;20032;-77
2024/02/24 06:56:46;;;;;;;3.65;2.88;;;;;;;4.17;74.22;96693.91;5001905;28;20040;-77
2024/02/24 06:59:15;;;;;;;3.30;3.00;;;;;;;4.28;73.92;96710.06;5066033;28;20040;-77
2024/02/24 07:01:40;;;;;;;4.03;3.17;;;;;;;4.38;74.18;96710.22;5033334;28;20038;-77
2024/02/24 07:04:05;;;;;;;3.88;3.38;;;;;;;4.38;73.60;96715.56;5033144;28;20017;-75
2024/02/24 07:06:31;;;;;;;3.92;3.42;;;;;;;4.51;73.80;96731.22;5013364;28;20049;-76
2024/02/24 07:08:56;;;;;;;3.63;3.33;;;;;;;4.55;74.00;96737.72;5031679;28;20045;-77
2024/02/24 07:11:21;;;;;;;6.53;4.80;;;;;;;4.52;73.42;96746.19;5024837;28;20033;-77
2024/02/24 07:13:47;;;;;;;11.60;8.82;;;;;;;4.57;73.50;96756.94;5024744;28;20470;-77
2024/02/24 07:16:15;;;;;;;4.35;3.90;;;;;;;4.67;73.37;96775.72;5024768;28;20038;-76
2024/02/24 07:18:41;;;;;;;3.97;3.67;;;;;;;4.73;73.36;96772.13;5019612;28;20083;-77
2024/02/24 07:21:06;;;;;;;3.65;2.85;;;;;;;4.61;73.31;96747.38;5026097;28;20033;-77
2024/02/24 07:23:32;;;;;;;5.95;2.80;;;;;;;4.65;72.92;96748.50;5029005;28;20033;-76
2024/02/24 07:26:01;;;;;;;3.65;3.00;;;;;;;4.76;72.96;96766.31;5033340;28;20037;-77
2024/02/24 07:28:27;;;;;;;3.78;3.03;;;;;;;4.79;73.29;96776.47;5032461;28;20607;-77
2024/02/24 07:30:52;;;;;;;3.53;2.80;;;;;;;4.86;72.66;96782.44;5032962;28;20502;-78
2024/02/24 07:33:17;;;;;;;3.92;3.20;;;;;;;4.74;72.45;96769.19;5015787;28;20033;-77
2024/02/24 07:35:43;;;;;;;3.25;2.90;;;;;;;4.83;73.19;96777.63;5032499;28;20094;-77
2024/02/24 07:38:08;;;;;;;3.30;2.50;;;;;;;4.84;72.97;96787.22;5024088;28;20040;-77
2024/02/24 07:40:34;;;;;;;3.63;2.80;;;;;;;4.75;73.02;96791.34;5016268;28;20033;-77
2024/02/24 07:43:00;;;;;;;3.80;3.05;;;;;;;4.81;72.41;96796.53;5024265;28;20443;-77
2024/02/24 07:45:26;;;;;;;3.83;3.25;;;;;;;5.02;72.11;96824.31;5024357;28;20033;-77
2024/02/24 07:47:53;;;;;;;3.72;3.42;;;;;;;4.69;72.25;96782.44;5031872;28;20032;-77
2024/02/24 07:50:18;;;;;;;5.63;3.85;;;;;;;4.95;72.17;96818.34;5049262;28;20041;-77
2024/02/24 07:52:43;;;;;;;3.95;3.53;;;;;;;4.96;72.49;96824.50;4999375;28;20030;-77
2024/02/24 07:55:09;;;;;;;5.05;4.15;;;;;;;4.87;72.85;96821.41;5012797;28;20476;-77
2024/02/24 07:57:34;;;;;;;5.95;4.60;;;;;;;4.88;72.15;96825.69;5025391;28;20038;-75
2024/02/24 08:00:00;;;;;;;4.90;4.30;;;;;;;5.01;72.84;96827.25;5022998;28;20059;-76
2024/02/24 08:02:25;;;;;;;6.28;4.95;;;;;;;4.90;72.46;96805.72;5058068;28;20045;-77
2024/02/24 08:04:51;;;;;;;5.50;4.93;;;;;;;4.91;73.13;96822.53;5034963;28;20036;-78
2024/02/24 08:07:16;;;;;;;5.85;5.00;;;;;;;4.91;72.75;96817.22;5032832;28;20025;-77
2024/02/24 08:09:41;;;;;;;6.05;5.45;;;;;;;4.97;72.67;96834.91;5032994;28;20033;-77
2024/02/24 08:12:07;;;;;;;6.40;5.45;;;;;;;4.96;73.44;96845.81;5027994;28;20116;-77
2024/02/24 08:14:33;;;;;;;10.40;8.30;;;;;;;5.06;72.80;96852.16;5031816;28;20044;-77
2024/02/24 08:16:59;;;;;;;5.32;4.82;;;;;;;4.82;73.54;96821.34;5024278;28;20033;-76
2024/02/24 08:19:24;;;;;;;6.10;4.13;;;;;;;4.81;73.48;96822.38;5061725;28;20033;-77
2024/02/24 08:21:50;;;;;;;5.45;4.40;;;;;;;5.05;73.70;96871.06;5014802;28;20029;-76
2024/02/24 08:24:16;;;;;;;5.47;4.57;;;;;;;5.01;73.17;96862.72;5031590;28;20040;-77
2024/02/24 08:26:43;;;;;;;5.45;4.43;;;;;;;5.00;73.65;96860.28;4999148;28;20036;-77
2024/02/24 08:29:09;;;;;;;5.25;4.75;;;;;;;5.09;73.89;96873.00;5006926;28;20034;-77
2024/02/24 08:31:35;;;;;;;8.13;6.25;;;;;;;5.03;73.57;96863.31;5047594;28;20028;-77
2024/02/24 08:34:01;;;;;;;5.40;4.65;;;;;;;4.82;73.69;96829.34;5032883;28;20038;-77
2024/02/24 08:36:26;;;;;;;4.90;4.50;;;;;;;5.06;73.74;96868.16;5031521;28;20028;-77
2024/02/24 08:38:52;;;;;;;6.82;4.50;;;;;;;5.06;73.52;96873.50;5031323;28;20421;-77
2024/02/24 08:41:17;;;;;;;5.40;4.22;;;;;;;5.20;72.89;96885.47;5031903;28;20104;-77
2024/02/24 08:43:42;;;;;;;7.78;4.70;;;;;;;5.11;73.04;96867.44;5031488;28;20528;-77
2024/02/24 08:46:08;;;;;;;6.90;4.70;;;;;;;4.69;73.60;96808.31;5014997;28;20136;-77
2024/02/24 08:48:34;;;;;;;7.65;5.13;;;;;;;5.21;73.49;96875.56;5047543;28;20037;-77
2024/02/24 08:50:59;;;;;;;5.88;4.78;;;;;;;5.34;73.19;96889.44;5006968;28;20025;-77
2024/02/24 08:53:25;;;;;;;4.85;4.20;;;;;;;5.36;73.41;96899.84;5014683;28;20116;-77
2024/02/24 08:55:50;;;;;;;7.22;4.30;;;;;;;5.20;73.56;96874.78;5019097;28;20025;-76
2024/02/24 08:58:15;;;;;;;7.90;6.18;;;;;;;5.41;73.34;96890.06;5028034;28;20038;-76
2024/02/24 09:00:41;;;;;;;5.60;5.10;;;;;;;5.48;72.87;96909.38;5039541;28;20025;-76
2024/02/24 09:03:07;;;;;;;5.30;4.80;;;;;;;5.51;73.37;96908.91;5023184;28;20037;-76
2024/02/24 09:05:32;;;;;;;6.85;5.20;;;;;;;5.57;72.41;96913.28;5006015;28;20028;-76
2024/02/24 09:07:57;;;;;;;6.75;6.00;;;;;;;5.58;72.63;96920.22;5014520;28;20089;-76
2024/02/24 09:10:23;;;;;;;5.55;4.40;;;;;;;5.52;73.08;96915.88;5045064;28;20032;-76
2024/02/24 09:12:48;;;;;;;6.03;5.53;;;;;;;5.66;72.05;96937.72;5031716;28;20413;-76
2024/02/24 09:15:14;;;;;;;5.45;4.30;;;;;;;5.64;72.23;96915.78;5033540;28;20033;-76
2024/02/24 09:17:39;;;;;;;6.55;5.88;;;;;;;5.71;71.93;96918.28;5060317;28;20049;-77
2024/02/24 09:20:05;;;;;;;6.60;6.00;;;;;;;5.77;71.69;96939.47;5037363;28;20033;-77
2024/02/24 09:22:30;;;;;;;4.97;4.28;;;;;;;5.73;72.85;96921.50;5031568;28;20048;-76
2024/02/24 09:24:56;;;;;;;7.32;6.63;;;;;;;5.88;71.83;96935.91;5057924;28;20469;-76
2024/02/24 09:27:21;;;;;;;6.75;5.28;;;;;;;5.86;72.13;96931.91;5031182;28;20037;-77
2024/02/24 09:29:47;;;;;;;6.28;5.70;;;;;;;5.94;72.80;96944.81;5014767;28;20025;-77
2024/02/24 09:32:12;;;;;;;4.93;4.53;;;;;;;6.11;72.85;96970.44;5024562;28;20029;-77
2024/02/24 09:34:38;;;;;;;4.32;3.92;;;;;;;6.10;72.90;96952.00;4996064;28;20022;-77
2024/02/24 09:37:05;;;;;;;3.92;3.53;;;;;;;6.17;72.66;96966.81;5014419;28;20120;-76
2024/02/24 09:39:30;;;;;;;4.90;3.88;;;;;;;6.03;72.71;96954.03;5031440;28;20021;-76
2024/02/24 09:42:02;;;;;;;5.30;4.80;;;;;;;6.25;72.61;96965.59;5014453;28;20068;-76
2024/02/24 09:44:29;;;;;;;6.10;4.45;;;;;;;6.23;73.02;96949.00;5029772;28;20474;-76
2024/02/24 09:46:57;;;;;;;10.13;5.65;;;;;;;5.93;73.38;96903.13;5031116;28;20061;-77
2024/02/24 09:49:27;;;;;;;14.15;10.02;;;;;;;6.41;72.47;96971.94;5019440;28;20025;-77
2024/02/24 09:51:53;;;;;;;11.23;8.52;;;;;;;6.35;72.14;96973.72;5035784;28;20047;-76
2024/02/24 09:54:18;;;;;;;8.27;5.70;;;;;;;6.32;72.30;96957.38;5030781;28;20116;-76
2024/02/24 09:56:45;;;;;;;6.20;4.43;;;;;;;6.43;72.20;96965.28;5018570;28;20080;-77
2024/02/24 09:59:11;;;;;;;4.22;3.60;;;;;;;6.44;71.87;96980.25;5035338;28;20029;-77
2024/02/24 10:01:36;;;;;;;3.58;3.20;;;;;;;6.47;71.41;96966.41;5027413;28;20071;-76
2024/02/24 10:04:02;;;;;;;3.47;3.17;;;;;;;6.37;71.24;96981.50;5026180;28;20028;-77
2024/02/24 10:06:28;;;;;;;4.97;3.70;;;;;;;6.35;72.17;96967.59;5034522;28;20037;-77
2024/02/24 10:08:53;;;;;;;5.70;4.32;;;;;;;6.25;70.78;96946.88;5026046;28;20028;-76
2024/02/24 10:11:19;;;;;;;8.07;4.13;;;;;;;6.36;71.43;96985.22;5042782;28;20525;-77
2024/02/24 10:13:44;;;;;;;5.70;4.10;;;;;;;6.22;71.59;96955.38;5015643;28;20021;-77
2024/02/24 10:16:10;;;;;;;7.22;4.03;;;;;;;6.41;71.13;96980.78;5034777;28;20033;-77
2024/02/24 10:18:39;;;;;;;5.10;4.60;;;;;;;6.40;71.30;96986.34;5005015;28;20036;-77
2024/02/24 10:21:05;;;;;;;4.22;3.72;;;;;;;6.43;70.96;96978.66;5035173;28;20258;-76
2024/02/24 10:23:30;;;;;;;5.65;4.97;;;;;;;6.38;71.93;96983.94;5030854;28;20029;-77
2024/02/24 10:25:57;;;;;;;6.13;5.47;;;;;;;6.34;71.52;96966.78;5034214;28;20046;-76
2024/02/24 10:28:25;;;;;;;4.72;3.97;;;;;;;6.41;71.21;96980.78;5035161;28;20028;-80
2024/02/24 10:30:52;;;;;;;6.78;3.85;;;;;;;6.37;70.58;96960.91;5050638;28;20030;-77
2024/02/24 10:33:18;;;;;;;4.75;3.78;;;;;;;6.50;71.00;96997.19;5013392;28;20401;-77
2024/02/24 10:35:44;;;;;;;4.95;4.45;;;;;;;6.68;70.50;96997.69;5033944;28;20647;-77
2024/02/24 10:38:12;;;;;;;4.60;3.50;;;;;;;6.82;71.01;97006.97;5050298;28;20113;-76
2024/02/24 10:40:38;;;;;;;5.35;3.60;;;;;;;6.85;70.80;96986.91;5034452;28;20053;-77
2024/02/24 10:43:04;;;;;;;4.30;3.17;;;;;;;7.08;70.58;97009.91;5017735;28;20565;-77
2024/02/24 10:45:30;;;;;;;7.38;3.15;;;;;;;7.10;70.33;97002.44;5014354;28;20044;-77
2024/02/24 10:47:56;;;;;;;4.25;3.85;;;;;;;7.23;69.91;97004.75;5049380;28;20433;-77
2024/02/24 10:50:21;;;;;;;3.67;3.25;;;;;;;7.22;69.64;96990.53;5003413;28;20128;-77
2024/02/24 10:52:48;;;;;;;4.20;3.20;;;;;;;7.19;69.83;96976.88;5017937;28;20029;-76
2024/02/24 10:55:18;;;;;;;6.05;3.40;;;;;;;7.22;69.26;96973.66;5009924;28;20048;-77
2024/02/24 10:57:44;;;;;;;5.07;3.17;;;;;;;7.25;69.19;96973.16;5017845;28;20119;-77
2024/02/24 11:00:31;;;;;;;6.88;5.82;;;;;;;7.33;69.21;96997.59;5010196;28;20047;-76
2024/02/24 11:03:00;;;;;;;6.90;5.22;;;;;;;7.50;68.66;96986.78;5046104;28;20037;-77
2024/02/24 11:05:27;;;;;;;9.57;7.00;;;;;;;7.54;69.07;96972.63;5009569;28;20394;-76
2024/02/24 11:07:52;;;;;;;4.88;4.45;;;;;;;7.62;69.24;96963.31;5017304;28;20040;-77
2024/02/24 11:10:19;;;;;;;5.47;3.30;;;;;;;7.81;68.29;96961.06;5017038;28;20025;-77
2024/02/24 11:12:44;;;;;;;3.40;2.60;;;;;;;7.98;68.82;96977.81;5022797;28;20033;-77
2024/02/24 11:15:23;;;;;;;3.40;2.28;;;;;;;8.03;67.43;96978.63;5029683;28;20620;-77
2024/02/24 11:17:51;;;;;;;2.63;2.40;;;;;;;8.20;67.08;96992.69;5018025;28;20086;-77
2024/02/24 11:20:39;;;;;;;2.30;1.80;;;;;;;8.08;65.62;97000.13;5031636;28;20025;-77
2024/02/24 11:23:20;;;;;;;1.98;1.88;;;;;;;8.06;67.31;96994.22;5033268;28;20044;-76
2024/02/24 11:25:46;;;;;;;5.25;3.05;;;;;;;8.18;66.28;96981.44;5046209;28;20448;-76
2024/02/24 11:28:20;;;;;;;2.40;2.20;;;;;;;8.30;65.88;96995.47;5060994;28;20022;-77
2024/02/24 11:30:46;;;;;;;2.50;2.10;;;;;;;8.21;65.63;96972.84;5016751;28;20033;-77
2024/02/24 11:33:24;;;;;;;2.03;1.85;;;;;;;8.44;67.52;97005.75;5034516;28;20030;-76
2024/02/24 11:35:50;;;;;;;1.63;1.52;;;;;;;8.24;67.20;96991.09;5041956;28;20088;-76
2024/02/24 11:38:17;;;;;;;2.20;1.65;;;;;;;8.58;65.48;97004.22;5024444;28;20022;-76